sensor_id;sensor_type;location;lat;lon;timestamp;pressure;altitude;pressure_sealevel;temperature;humidity
13312;BME280;34033;48.672;9.376;2023-02-10T00:01:56;100456.41;;;0.23;62.25
13312;BME280;34033;48.672;9.376;2023-02-10T00:04:21;100459.72;;;0.20;63.33
13312;BME280;34033;48.672;9.376;2023-02-10T00:06:46;100467.13;;;0.25;63.77
13312;BME280;34033;48.672;9.376;2023-02-10T00:09:13;100461.38;;;0.26;62.91
13312;BME280;34033;48.672;9.376;2023-02-10T00:11:39;100466.56;;;0.28;63.24
13312;BME280;34033;48.672;9.376;2023-02-10T00:14:25;100464.66;;;0.23;63.74
13312;BME280;34033;48.672;9.376;2023-02-10T00:16:52;100463.00;;;0.22;63.62
13312;BME280;34033;48.672;9.376;2023-02-10T00:19:19;100465.47;;;0.19;62.62
13312;BME280;34033;48.672;9.376;2023-02-10T00:21:45;100453.09;;;0.16;62.99
13312;BME280;34033;48.672;9.376;2023-02-10T00:24:10;100459.97;;;0.09;62.44
13312;BME280;34033;48.672;9.376;2023-02-10T00:26:36;100451.13;;;0.02;62.63
13312;BME280;34033;48.672;9.376;2023-02-10T00:29:01;100453.91;;;0.07;63.38
13312;BME280;34033;48.672;9.376;2023-02-10T00:31:27;100449.50;;;0.06;62.84
13312;BME280;34033;48.672;9.376;2023-02-10T00:33:52;100446.47;;;0.07;63.50
13312;BME280;34033;48.672;9.376;2023-02-10T00:36:18;100450.63;;;0.05;63.38
13312;BME280;34033;48.672;9.376;2023-02-10T00:38:43;100443.19;;;0.00;62.12
13312;BME280;34033;48.672;9.376;2023-02-10T00:41:14;100456.03;;;-0.16;62.32
13312;BME280;34033;48.672;9.376;2023-02-10T00:43:40;100463.22;;;-0.10;64.47
13312;BME280;34033;48.672;9.376;2023-02-10T00:46:07;100461.84;;;-0.12;63.78
13312;BME280;34033;48.672;9.376;2023-02-10T00:48:33;100467.03;;;-0.16;63.18
13312;BME280;34033;48.672;9.376;2023-02-10T00:50:59;100471.44;;;-0.20;62.67
13312;BME280;34033;48.672;9.376;2023-02-10T00:53:25;100472.00;;;-0.18;64.01
13312;BME280;34033;48.672;9.376;2023-02-10T00:55:50;100468.97;;;-0.16;64.64
13312;BME280;34033;48.672;9.376;2023-02-10T00:58:16;100465.41;;;-0.17;63.48
13312;BME280;34033;48.672;9.376;2023-02-10T01:00:42;100474.66;;;-0.38;63.09
13312;BME280;34033;48.672;9.376;2023-02-10T01:03:07;100476.06;;;-0.35;63.49
13312;BME280;34033;48.672;9.376;2023-02-10T01:05:32;100483.47;;;-0.41;64.00
13312;BME280;34033;48.672;9.376;2023-02-10T01:07:58;100485.69;;;-0.33;64.19
13312;BME280;34033;48.672;9.376;2023-02-10T01:10:23;100484.84;;;-0.38;63.44
13312;BME280;34033;48.672;9.376;2023-02-10T01:12:48;100486.25;;;-0.31;63.78
13312;BME280;34033;48.672;9.376;2023-02-10T01:15:14;100484.91;;;-0.28;64.72
13312;BME280;34033;48.672;9.376;2023-02-10T01:17:39;100486.25;;;-0.31;64.93
13312;BME280;34033;48.672;9.376;2023-02-10T01:20:05;100498.91;;;-0.30;63.40
13312;BME280;34033;48.672;9.376;2023-02-10T01:22:35;100497.50;;;-0.32;63.46
13312;BME280;34033;48.672;9.376;2023-02-10T01:25:00;100497.22;;;-0.36;63.00
13312;BME280;34033;48.672;9.376;2023-02-10T01:27:26;100499.94;;;-0.41;63.51
13312;BME280;34033;48.672;9.376;2023-02-10T01:29:51;100495.03;;;-0.39;63.69
13312;BME280;34033;48.672;9.376;2023-02-10T01:32:17;100495.53;;;-0.42;63.77
13312;BME280;34033;48.672;9.376;2023-02-10T01:34:42;100492.28;;;-0.39;63.87
13312;BME280;34033;48.672;9.376;2023-02-10T01:37:08;100494.47;;;-0.36;63.89
13312;BME280;34033;48.672;9.376;2023-02-10T01:39:33;100503.78;;;-0.47;62.08
13312;BME280;34033;48.672;9.376;2023-02-10T01:41:59;100497.69;;;-0.54;63.00
13312;BME280;34033;48.672;9.376;2023-02-10T01:46:50;100487.28;;;-0.47;64.60
13312;BME280;34033;48.672;9.376;2023-02-10T01:52:37;100486.16;;;-0.51;63.38
13312;BME280;34033;48.672;9.376;2023-02-10T01:55:11;100490.84;;;-0.52;63.38
13312;BME280;34033;48.672;9.376;2023-02-10T01:57:39;100488.09;;;-0.52;63.73
13312;BME280;34033;48.672;9.376;2023-02-10T02:00:07;100491.34;;;-0.55;64.01
13312;BME280;34033;48.672;9.376;2023-02-10T02:02:33;100480.91;;;-0.58;62.98
13312;BME280;34033;48.672;9.376;2023-02-10T02:05:02;100474.59;;;-0.58;64.36
13312;BME280;34033;48.672;9.376;2023-02-10T02:07:29;100472.94;;;-0.59;64.21
13312;BME280;34033;48.672;9.376;2023-02-10T02:09:59;100474.59;;;-0.58;66.13
13312;BME280;34033;48.672;9.376;2023-02-10T02:15:03;100471.59;;;-0.57;66.32
13312;BME280;34033;48.672;9.376;2023-02-10T02:17:47;100474.06;;;-0.55;65.95
13312;BME280;34033;48.672;9.376;2023-02-10T02:20:38;100485.59;;;-0.58;64.24
13312;BME280;34033;48.672;9.376;2023-02-10T02:23:11;100483.81;;;-0.85;65.14
13312;BME280;34033;48.672;9.376;2023-02-10T02:25:56;100490.06;;;-0.94;65.60
13312;BME280;34033;48.672;9.376;2023-02-10T02:34:10;100512.22;;;-1.06;66.63
13312;BME280;34033;48.672;9.376;2023-02-10T02:36:48;100510.03;;;-1.04;66.13
13312;BME280;34033;48.672;9.376;2023-02-10T02:39:14;100507.63;;;-0.95;65.70
13312;BME280;34033;48.672;9.376;2023-02-10T02:41:39;100513.41;;;-0.92;65.58
13312;BME280;34033;48.672;9.376;2023-02-10T02:44:06;100518.09;;;-0.87;64.30
13312;BME280;34033;48.672;9.376;2023-02-10T02:49:26;100513.78;;;-0.78;65.51
13312;BME280;34033;48.672;9.376;2023-02-10T02:52:00;100505.56;;;-0.73;66.03
13312;BME280;34033;48.672;9.376;2023-02-10T02:54:47;100507.78;;;-0.70;65.67
13312;BME280;34033;48.672;9.376;2023-02-10T02:57:44;100517.13;;;-0.66;65.61
13312;BME280;34033;48.672;9.376;2023-02-10T03:00:15;100525.09;;;-0.64;65.52
13312;BME280;34033;48.672;9.376;2023-02-10T03:02:42;100524.50;;;-0.71;63.54
13312;BME280;34033;48.672;9.376;2023-02-10T03:05:10;100521.22;;;-0.73;63.53
13312;BME280;34033;48.672;9.376;2023-02-10T03:07:35;100528.38;;;-0.72;64.02
13312;BME280;34033;48.672;9.376;2023-02-10T03:10:01;100530.00;;;-0.71;64.86
13312;BME280;34033;48.672;9.376;2023-02-10T03:12:26;100527.84;;;-0.69;66.86
13312;BME280;34033;48.672;9.376;2023-02-10T03:14:51;100524.81;;;-0.68;65.49
13312;BME280;34033;48.672;9.376;2023-02-10T03:17:17;100531.16;;;-0.67;64.36
13312;BME280;34033;48.672;9.376;2023-02-10T03:19:42;100539.38;;;-0.67;62.46
13312;BME280;34033;48.672;9.376;2023-02-10T03:22:07;100532.50;;;-0.70;63.85
13312;BME280;34033;48.672;9.376;2023-02-10T03:24:33;100541.00;;;-0.71;63.80
13312;BME280;34033;48.672;9.376;2023-02-10T03:26:58;100545.69;;;-0.72;64.98
13312;BME280;34033;48.672;9.376;2023-02-10T03:29:23;100539.34;;;-0.77;64.59
13312;BME280;34033;48.672;9.376;2023-02-10T03:31:49;100542.88;;;-0.77;64.69
13312;BME280;34033;48.672;9.376;2023-02-10T03:34:15;100538.19;;;-0.81;64.21
13312;BME280;34033;48.672;9.376;2023-02-10T03:36:40;100549.13;;;-0.87;64.47
13312;BME280;34033;48.672;9.376;2023-02-10T03:39:05;100538.16;;;-0.87;64.79
13312;BME280;34033;48.672;9.376;2023-02-10T03:41:31;100540.91;;;-0.87;65.20
13312;BME280;34033;48.672;9.376;2023-02-10T03:43:56;100544.72;;;-0.88;63.85
13312;BME280;34033;48.672;9.376;2023-02-10T03:46:21;100547.72;;;-0.94;62.21
13312;BME280;34033;48.672;9.376;2023-02-10T03:48:47;100545.50;;;-0.97;62.49
13312;BME280;34033;48.672;9.376;2023-02-10T03:51:13;100547.66;;;-0.99;63.35
13312;BME280;34033;48.672;9.376;2023-02-10T03:53:38;100556.63;;;-1.14;62.73
13312;BME280;34033;48.672;9.376;2023-02-10T03:56:04;100553.25;;;-1.21;63.07
13312;BME280;34033;48.672;9.376;2023-02-10T03:58:30;100564.44;;;-1.33;63.96
13312;BME280;34033;48.672;9.376;2023-02-10T04:00:55;100557.09;;;-1.27;64.57
13312;BME280;34033;48.672;9.376;2023-02-10T04:03:21;100550.47;;;-1.26;65.97
13312;BME280;34033;48.672;9.376;2023-02-10T04:05:46;100546.66;;;-1.25;65.84
13312;BME280;34033;48.672;9.376;2023-02-10T04:08:11;100555.22;;;-1.21;64.16
13312;BME280;34033;48.672;9.376;2023-02-10T04:10:37;100562.91;;;-1.18;63.98
13312;BME280;34033;48.672;9.376;2023-02-10T04:13:03;100563.63;;;-1.33;62.88
13312;BME280;34033;48.672;9.376;2023-02-10T04:15:28;100564.16;;;-1.31;63.48
13312;BME280;34033;48.672;9.376;2023-02-10T04:17:54;100559.25;;;-1.29;64.01
13312;BME280;34033;48.672;9.376;2023-02-10T04:20:22;100562.00;;;-1.29;64.65
13312;BME280;34033;48.672;9.376;2023-02-10T04:22:47;100560.63;;;-1.27;65.23
13312;BME280;34033;48.672;9.376;2023-02-10T04:25:12;100556.41;;;-1.39;62.36
13312;BME280;34033;48.672;9.376;2023-02-10T04:27:38;100554.97;;;-1.47;62.45
13312;BME280;34033;48.672;9.376;2023-02-10T04:30:03;100560.16;;;-1.50;63.91
13312;BME280;34033;48.672;9.376;2023-02-10T04:32:29;100562.91;;;-1.50;63.32
13312;BME280;34033;48.672;9.376;2023-02-10T04:34:54;100560.66;;;-1.53;62.77
13312;BME280;34033;48.672;9.376;2023-02-10T04:37:19;100561.00;;;-1.50;63.54
13312;BME280;34033;48.672;9.376;2023-02-10T04:39:45;100558.00;;;-1.43;63.38
13312;BME280;34033;48.672;9.376;2023-02-10T04:42:10;100568.69;;;-1.47;63.91
13312;BME280;34033;48.672;9.376;2023-02-10T04:44:36;100559.94;;;-1.44;64.49
13312;BME280;34033;48.672;9.376;2023-02-10T04:47:01;100561.59;;;-1.43;64.38
13312;BME280;34033;48.672;9.376;2023-02-10T04:49:26;100568.97;;;-1.43;62.62
13312;BME280;34033;48.672;9.376;2023-02-10T04:51:52;100570.84;;;-1.49;62.95
13312;BME280;34033;48.672;9.376;2023-02-10T04:54:18;100576.00;;;-0.94;76.73
13312;BME280;34033;48.672;9.376;2023-02-10T04:56:44;100571.59;;;-0.53;69.28
13312;BME280;34033;48.672;9.376;2023-02-10T04:59:09;100568.88;;;0.05;65.84
13312;BME280;34033;48.672;9.376;2023-02-10T05:01:34;100572.00;;;0.38;62.34
13312;BME280;34033;48.672;9.376;2023-02-10T05:04:00;100572.28;;;0.67;66.75
13312;BME280;34033;48.672;9.376;2023-02-10T05:06:25;100575.56;;;1.50;74.77
13312;BME280;34033;48.672;9.376;2023-02-10T05:08:51;100580.81;;;1.42;69.31
13312;BME280;34033;48.672;9.376;2023-02-10T05:11:16;100582.22;;;1.29;60.32
13312;BME280;34033;48.672;9.376;2023-02-10T05:13:42;100583.34;;;1.08;59.20
13312;BME280;34033;48.672;9.376;2023-02-10T05:16:09;100592.69;;;0.92;59.43
13312;BME280;34033;48.672;9.376;2023-02-10T05:18:35;100584.44;;;0.76;59.17
13312;BME280;34033;48.672;9.376;2023-02-10T05:21:01;100590.47;;;0.63;59.59
13312;BME280;34033;48.672;9.376;2023-02-10T05:23:28;100591.00;;;0.55;58.42
13312;BME280;34033;48.672;9.376;2023-02-10T05:25:53;100598.16;;;0.51;57.23
13312;BME280;34033;48.672;9.376;2023-02-10T05:28:19;100599.50;;;0.38;58.17
13312;BME280;34033;48.672;9.376;2023-02-10T05:30:45;100594.53;;;0.30;58.45
13312;BME280;34033;48.672;9.376;2023-02-10T05:33:11;100600.59;;;0.32;57.96
13312;BME280;34033;48.672;9.376;2023-02-10T05:35:36;100592.59;;;0.31;57.39
13312;BME280;34033;48.672;9.376;2023-02-10T05:38:01;100592.88;;;0.29;58.04
13312;BME280;34033;48.672;9.376;2023-02-10T05:40:28;100591.50;;;0.27;59.28
13312;BME280;34033;48.672;9.376;2023-02-10T05:42:53;100599.78;;;0.37;60.22
13312;BME280;34033;48.672;9.376;2023-02-10T05:45:19;100594.25;;;0.32;60.45
13312;BME280;34033;48.672;9.376;2023-02-10T05:47:44;100603.06;;;0.39;59.35
13312;BME280;34033;48.672;9.376;2023-02-10T05:50:09;100597.03;;;0.42;56.75
13312;BME280;34033;48.672;9.376;2023-02-10T05:52:35;100610.53;;;0.38;56.18
13312;BME280;34033;48.672;9.376;2023-02-10T05:55:00;100607.19;;;0.31;57.66
13312;BME280;34033;48.672;9.376;2023-02-10T05:57:26;100610.22;;;0.35;57.14
13312;BME280;34033;48.672;9.376;2023-02-10T05:59:51;100617.94;;;0.38;56.93
13312;BME280;34033;48.672;9.376;2023-02-10T06:02:16;100621.22;;;0.40;56.62
13312;BME280;34033;48.672;9.376;2023-02-10T06:04:41;100621.78;;;0.37;56.76
13312;BME280;34033;48.672;9.376;2023-02-10T06:07:07;100629.72;;;0.33;57.42
13312;BME280;34033;48.672;9.376;2023-02-10T06:09:32;100630.56;;;0.34;58.21
13312;BME280;34033;48.672;9.376;2023-02-10T06:11:57;100623.97;;;0.35;57.68
13312;BME280;34033;48.672;9.376;2023-02-10T06:14:23;100624.78;;;0.35;57.44
13312;BME280;34033;48.672;9.376;2023-02-10T06:16:48;100636.06;;;0.34;57.30
13312;BME280;34033;48.672;9.376;2023-02-10T06:19:13;100643.19;;;0.25;57.14
13312;BME280;34033;48.672;9.376;2023-02-10T06:21:39;100642.91;;;0.21;56.73
13312;BME280;34033;48.672;9.376;2023-02-10T06:24:04;100644.53;;;0.22;55.83
13312;BME280;34033;48.672;9.376;2023-02-10T06:26:30;100635.44;;;0.17;57.22
13312;BME280;34033;48.672;9.376;2023-02-10T06:28:55;100638.75;;;0.19;56.29
13312;BME280;34033;48.672;9.376;2023-02-10T06:31:21;100646.44;;;0.17;55.80
13312;BME280;34033;48.672;9.376;2023-02-10T06:33:47;100649.72;;;0.09;56.39
13312;BME280;34033;48.672;9.376;2023-02-10T06:36:13;100648.06;;;0.08;56.66
13312;BME280;34033;48.672;9.376;2023-02-10T06:38:38;100655.50;;;0.07;59.78
13312;BME280;34033;48.672;9.376;2023-02-10T06:41:04;100660.19;;;0.17;60.47
13312;BME280;34033;48.672;9.376;2023-02-10T06:43:30;100660.25;;;0.22;59.45
13312;BME280;34033;48.672;9.376;2023-02-10T06:45:56;100657.78;;;0.25;57.89
13312;BME280;34033;48.672;9.376;2023-02-10T06:48:21;100652.88;;;0.32;59.30
13312;BME280;34033;48.672;9.376;2023-02-10T06:50:47;100661.94;;;0.33;57.93
13312;BME280;34033;48.672;9.376;2023-02-10T06:53:12;100657.53;;;0.27;56.67
13312;BME280;34033;48.672;9.376;2023-02-10T06:55:37;100671.81;;;0.29;55.96
13312;BME280;34033;48.672;9.376;2023-02-10T06:58:03;100672.38;;;0.26;56.03
13312;BME280;34033;48.672;9.376;2023-02-10T07:00:30;100673.19;;;0.21;57.17
13312;BME280;34033;48.672;9.376;2023-02-10T07:02:57;100676.19;;;0.20;57.56
13312;BME280;34033;48.672;9.376;2023-02-10T07:05:23;100686.13;;;0.26;56.34
13312;BME280;34033;48.672;9.376;2023-02-10T07:07:48;100680.91;;;0.29;56.57
13312;BME280;34033;48.672;9.376;2023-02-10T07:10:16;100680.09;;;0.34;56.58
13312;BME280;34033;48.672;9.376;2023-02-10T07:12:42;100672.41;;;0.36;58.30
13312;BME280;34033;48.672;9.376;2023-02-10T07:15:08;100682.59;;;0.40;59.45
13312;BME280;34033;48.672;9.376;2023-02-10T07:17:33;100684.56;;;0.55;57.21
13312;BME280;34033;48.672;9.376;2023-02-10T07:19:59;100697.22;;;0.51;57.20
13312;BME280;34033;48.672;9.376;2023-02-10T07:22:24;100694.22;;;0.58;57.90
13312;BME280;34033;48.672;9.376;2023-02-10T07:24:50;100692.06;;;0.65;56.74
13312;BME280;34033;48.672;9.376;2023-02-10T07:27:15;100697.00;;;0.63;56.87
13312;BME280;34033;48.672;9.376;2023-02-10T07:29:40;100694.53;;;0.66;58.71
13312;BME280;34033;48.672;9.376;2023-02-10T07:32:06;100697.84;;;0.73;58.50
13312;BME280;34033;48.672;9.376;2023-02-10T07:34:31;100694.56;;;0.76;58.85
13312;BME280;34033;48.672;9.376;2023-02-10T07:36:59;100694.59;;;0.81;59.56
13312;BME280;34033;48.672;9.376;2023-02-10T07:39:24;100691.56;;;0.88;59.55
13312;BME280;34033;48.672;9.376;2023-02-10T07:41:50;100696.78;;;0.95;57.75
13312;BME280;34033;48.672;9.376;2023-02-10T07:44:16;100698.44;;;0.91;57.17
13312;BME280;34033;48.672;9.376;2023-02-10T07:46:41;100705.06;;;0.90;58.44
13312;BME280;34033;48.672;9.376;2023-02-10T07:49:07;100701.47;;;0.94;57.74
13312;BME280;34033;48.672;9.376;2023-02-10T07:51:32;100696.78;;;0.95;56.74
13312;BME280;34033;48.672;9.376;2023-02-10T07:53:58;100703.16;;;1.00;57.28
13312;BME280;34033;48.672;9.376;2023-02-10T07:56:23;100702.63;;;1.03;56.80
13312;BME280;34033;48.672;9.376;2023-02-10T07:58:48;100706.47;;;1.07;57.62
13312;BME280;34033;48.672;9.376;2023-02-10T08:01:14;100710.31;;;1.16;58.39
13312;BME280;34033;48.672;9.376;2023-02-10T08:03:40;100709.81;;;1.24;59.66
13312;BME280;34033;48.672;9.376;2023-02-10T08:06:05;100709.53;;;1.36;57.52
13312;BME280;34033;48.672;9.376;2023-02-10T08:08:31;100712.28;;;1.41;56.00
13312;BME280;34033;48.672;9.376;2023-02-10T08:10:56;100713.66;;;1.39;56.96
13312;BME280;34033;48.672;9.376;2023-02-10T08:13:22;100706.50;;;1.33;56.93
13312;BME280;34033;48.672;9.376;2023-02-10T08:15:47;100701.81;;;1.38;56.70
13312;BME280;34033;48.672;9.376;2023-02-10T08:18:13;100703.19;;;1.36;56.71
13312;BME280;34033;48.672;9.376;2023-02-10T08:20:38;100705.13;;;1.35;57.21
13312;BME280;34033;48.672;9.376;2023-02-10T08:23:06;100701.53;;;1.35;56.79
13312;BME280;34033;48.672;9.376;2023-02-10T08:25:31;100709.25;;;1.33;57.07
13312;BME280;34033;48.672;9.376;2023-02-10T08:27:57;100712.56;;;1.35;57.51
13312;BME280;34033;48.672;9.376;2023-02-10T08:30:23;100700.72;;;1.34;57.91
13312;BME280;34033;48.672;9.376;2023-02-10T08:32:48;100708.44;;;1.32;57.64
13312;BME280;34033;48.672;9.376;2023-02-10T08:35:14;100708.97;;;1.34;57.72
13312;BME280;34033;48.672;9.376;2023-02-10T08:37:39;100715.59;;;1.33;58.21
13312;BME280;34033;48.672;9.376;2023-02-10T08:40:05;100715.06;;;1.46;58.26
13312;BME280;34033;48.672;9.376;2023-02-10T08:42:32;100704.59;;;1.53;58.40
13312;BME280;34033;48.672;9.376;2023-02-10T08:44:58;100711.75;;;1.64;58.67
13312;BME280;34033;48.672;9.376;2023-02-10T08:47:23;100719.44;;;1.73;58.88
13312;BME280;34033;48.672;9.376;2023-02-10T08:49:49;100717.81;;;1.82;58.22
13312;BME280;34033;48.672;9.376;2023-02-10T08:52:14;100716.13;;;1.91;57.39
13312;BME280;34033;48.672;9.376;2023-02-10T08:54:41;100723.00;;;1.93;57.25
13312;BME280;34033;48.672;9.376;2023-02-10T08:57:06;100715.03;;;1.97;57.46
13312;BME280;34033;48.672;9.376;2023-02-10T08:59:32;100716.09;;;2.06;57.06
13312;BME280;34033;48.672;9.376;2023-02-10T09:01:57;100713.88;;;2.13;57.49
13312;BME280;34033;48.672;9.376;2023-02-10T09:04:23;100719.63;;;2.22;57.22
13312;BME280;34033;48.672;9.376;2023-02-10T09:06:48;100710.22;;;2.33;57.65
13312;BME280;34033;48.672;9.376;2023-02-10T09:09:16;100708.25;;;2.54;57.92
13312;BME280;34033;48.672;9.376;2023-02-10T09:11:45;100705.91;;;2.71;56.87
13312;BME280;34033;48.672;9.376;2023-02-10T09:14:10;100701.41;;;2.90;56.76
13312;BME280;34033;48.672;9.376;2023-02-10T09:16:35;100705.81;;;2.96;56.35
13312;BME280;34033;48.672;9.376;2023-02-10T09:19:01;100704.34;;;3.04;56.23
13312;BME280;34033;48.672;9.376;2023-02-10T09:21:27;100692.47;;;3.08;55.26
13312;BME280;34033;48.672;9.376;2023-02-10T09:23:52;100694.06;;;3.19;55.78
13312;BME280;34033;48.672;9.376;2023-02-10T09:26:18;100699.00;;;3.22;55.71
13312;BME280;34033;48.672;9.376;2023-02-10T09:28:43;100688.44;;;3.29;55.58
13312;BME280;34033;48.672;9.376;2023-02-10T09:31:12;100693.94;;;3.34;55.80
13312;BME280;34033;48.672;9.376;2023-02-10T09:33:37;100699.97;;;3.42;55.45
13312;BME280;34033;48.672;9.376;2023-02-10T09:36:04;100700.13;;;3.55;56.32
13312;BME280;34033;48.672;9.376;2023-02-10T09:38:30;100688.91;;;3.70;55.16
13312;BME280;34033;48.672;9.376;2023-02-10T09:51:50;100700.97;;;4.13;55.67
13312;BME280;34033;48.672;9.376;2023-02-10T09:54:18;100700.78;;;4.29;55.50
13312;BME280;34033;48.672;9.376;2023-02-10T09:56:44;100705.66;;;4.37;55.07
13312;BME280;34033;48.672;9.376;2023-02-10T09:59:14;100701.22;;;4.41;54.90
13312;BME280;34033;48.672;9.376;2023-02-10T10:01:52;100692.69;;;4.56;56.17
13312;BME280;34033;48.672;9.376;2023-02-10T10:04:20;100700.59;;;4.68;55.25
13312;BME280;34033;48.672;9.376;2023-02-10T10:06:53;100696.78;;;4.82;55.09
13312;BME280;34033;48.672;9.376;2023-02-10T10:09:40;100703.22;;;4.96;55.13
13312;BME280;34033;48.672;9.376;2023-02-10T10:12:09;100695.09;;;5.05;54.88
13312;BME280;34033;48.672;9.376;2023-02-10T10:14:38;100695.09;;;5.05;55.13
13312;BME280;34033;48.672;9.376;2023-02-10T10:17:31;100697.69;;;5.15;53.89
13312;BME280;34033;48.672;9.376;2023-02-10T10:31:16;100682.41;;;5.88;53.30
13312;BME280;34033;48.672;9.376;2023-02-10T10:34:03;100681.09;;;5.80;52.07
13312;BME280;34033;48.672;9.376;2023-02-10T10:36:36;100678.72;;;5.73;53.43
13312;BME280;34033;48.672;9.376;2023-02-10T10:41:37;100675.09;;;5.59;53.51
13312;BME280;34033;48.672;9.376;2023-02-10T10:44:03;100669.16;;;5.66;53.13
13312;BME280;34033;48.672;9.376;2023-02-10T10:46:48;100667.72;;;6.01;54.94
13312;BME280;34033;48.672;9.376;2023-02-10T10:49:15;100666.75;;;7.90;67.27
13312;BME280;34033;48.672;9.376;2023-02-10T10:51:41;100657.03;;;9.23;57.21
13312;BME280;34033;48.672;9.376;2023-02-10T10:54:14;100652.91;;;9.03;49.81
13312;BME280;34033;48.672;9.376;2023-02-10T10:56:54;100649.41;;;8.72;49.01
13312;BME280;34033;48.672;9.376;2023-02-10T10:59:29;100647.66;;;8.36;48.20
13312;BME280;34033;48.672;9.376;2023-02-10T11:01:56;100653.16;;;8.28;50.13
13312;BME280;34033;48.672;9.376;2023-02-10T11:04:23;100652.88;;;7.99;47.30
13312;BME280;34033;48.672;9.376;2023-02-10T11:06:52;100659.34;;;7.85;48.32
13312;BME280;34033;48.672;9.376;2023-02-10T11:09:26;100650.97;;;7.77;49.39
13312;BME280;34033;48.672;9.376;2023-02-10T11:11:54;100642.91;;;7.75;48.79
13312;BME280;34033;48.672;9.376;2023-02-10T11:14:26;100640.81;;;7.81;48.33
13312;BME280;34033;48.672;9.376;2023-02-10T11:17:02;100637.59;;;7.87;49.16
13312;BME280;34033;48.672;9.376;2023-02-10T11:19:34;100629.53;;;7.86;48.60
13312;BME280;34033;48.672;9.376;2023-02-10T11:22:00;100631.91;;;8.01;51.19
13312;BME280;34033;48.672;9.376;2023-02-10T11:24:27;100633.31;;;7.90;48.87
13312;BME280;34033;48.672;9.376;2023-02-10T11:27:13;100629.22;;;7.87;48.26
13312;BME280;34033;48.672;9.376;2023-02-10T11:29:57;100630.41;;;7.95;48.61
13312;BME280;34033;48.672;9.376;2023-02-10T11:34:52;100623.47;;;8.15;48.77
13312;BME280;34033;48.672;9.376;2023-02-10T11:37:24;100624.69;;;8.31;50.97
13312;BME280;34033;48.672;9.376;2023-02-10T11:39:53;100624.63;;;8.62;54.41
13312;BME280;34033;48.672;9.376;2023-02-10T11:42:21;100622.69;;;8.88;53.69
13312;BME280;34033;48.672;9.376;2023-02-10T11:45:15;100622.38;;;8.90;47.71
13312;BME280;34033;48.672;9.376;2023-02-10T11:47:41;100626.94;;;8.77;46.30
13312;BME280;34033;48.672;9.376;2023-02-10T11:50:24;100623.97;;;8.65;46.38
13312;BME280;34033;48.672;9.376;2023-02-10T11:52:50;100618.88;;;8.67;48.06
13312;BME280;34033;48.672;9.376;2023-02-10T11:55:16;100615.31;;;8.75;47.42
13312;BME280;34033;48.672;9.376;2023-02-10T11:58:20;100621.69;;;8.84;46.87
13312;BME280;34033;48.672;9.376;2023-02-10T12:01:20;100612.50;;;8.84;45.97
13312;BME280;34033;48.672;9.376;2023-02-10T12:06:53;100607.75;;;8.84;45.13
13312;BME280;34033;48.672;9.376;2023-02-10T12:09:50;100601.53;;;8.96;45.86
13312;BME280;34033;48.672;9.376;2023-02-10T12:17:35;100595.28;;;9.33;42.79
13312;BME280;34033;48.672;9.376;2023-02-10T12:33:48;100584.38;;;9.75;43.56
13312;BME280;34033;48.672;9.376;2023-02-10T12:39:40;100571.94;;;9.93;42.32
13312;BME280;34033;48.672;9.376;2023-02-10T12:42:14;100568.19;;;9.89;41.59
13312;BME280;34033;48.672;9.376;2023-02-10T12:48:05;100565.81;;;9.70;41.16
13312;BME280;34033;48.672;9.376;2023-02-10T12:53:35;100558.03;;;9.84;41.58
13312;BME280;34033;48.672;9.376;2023-02-10T12:56:10;100549.66;;;9.84;41.26
13312;BME280;34033;48.672;9.376;2023-02-10T12:58:41;100557.59;;;9.65;37.44
13312;BME280;34033;48.672;9.376;2023-02-10T13:03:37;100564.31;;;9.73;40.64
13312;BME280;34033;48.672;9.376;2023-02-10T13:06:36;100559.38;;;9.78;38.46
13312;BME280;34033;48.672;9.376;2023-02-10T13:12:22;100558.03;;;9.84;40.85
13312;BME280;34033;48.672;9.376;2023-02-10T13:14:52;100552.88;;;9.95;42.14
13312;BME280;34033;48.672;9.376;2023-02-10T13:17:19;100546.47;;;10.03;41.46
13312;BME280;34033;48.672;9.376;2023-02-10T13:19:49;100538.16;;;10.15;41.49
13312;BME280;34033;48.672;9.376;2023-02-10T13:25:16;100540.66;;;10.46;41.49
13312;BME280;34033;48.672;9.376;2023-02-10T13:33:17;100526.06;;;10.61;40.30
13312;BME280;34033;48.672;9.376;2023-02-10T13:35:45;100525.38;;;10.64;40.13
13312;BME280;34033;48.672;9.376;2023-02-10T13:38:17;100533.75;;;10.64;37.93
13312;BME280;34033;48.672;9.376;2023-02-10T13:40:49;100531.47;;;10.37;36.02
13312;BME280;34033;48.672;9.376;2023-02-10T13:43:34;100537.28;;;10.32;36.88
13312;BME280;34033;48.672;9.376;2023-02-10T13:46:00;100533.72;;;10.23;35.97
13312;BME280;34033;48.672;9.376;2023-02-10T13:48:31;100539.81;;;10.25;39.74
13312;BME280;34033;48.672;9.376;2023-02-10T13:51:01;100537.91;;;10.37;39.75
13312;BME280;34033;48.672;9.376;2023-02-10T14:01:45;100542.38;;;10.80;38.00
13312;BME280;34033;48.672;9.376;2023-02-10T14:06:45;100543.59;;;10.70;36.46
13312;BME280;34033;48.672;9.376;2023-02-10T14:11:56;100544.06;;;10.52;36.53
13312;BME280;34033;48.672;9.376;2023-02-10T14:16:50;100545.44;;;10.66;37.33
13312;BME280;34033;48.672;9.376;2023-02-10T14:21:48;100545.63;;;10.61;35.64
13312;BME280;34033;48.672;9.376;2023-02-10T14:24:17;100543.13;;;10.68;37.89
13312;BME280;34033;48.672;9.376;2023-02-10T14:26:45;100550.63;;;10.76;36.48
13312;BME280;34033;48.672;9.376;2023-02-10T14:29:14;100548.44;;;10.82;37.18
13312;BME280;34033;48.672;9.376;2023-02-10T14:31:42;100547.81;;;10.97;36.92
13312;BME280;34033;48.672;9.376;2023-02-10T14:34:20;100558.81;;;11.02;36.49
13312;BME280;34033;48.672;9.376;2023-02-10T14:36:56;100553.34;;;11.06;36.08
13312;BME280;34033;48.672;9.376;2023-02-10T14:39:23;100556.47;;;11.04;36.12
13312;BME280;34033;48.672;9.376;2023-02-10T14:41:50;100541.47;;;10.88;35.65
13312;BME280;34033;48.672;9.376;2023-02-10T14:44:41;100540.66;;;10.87;36.62
13312;BME280;34033;48.672;9.376;2023-02-10T14:47:35;100536.91;;;10.83;35.55
13312;BME280;34033;48.672;9.376;2023-02-10T14:50:01;100542.31;;;10.88;36.79